Time;durP1;ratioP1;P1;durP2;ratioP2;P2;SDS_P1;SDS_P2;PMS_P1;PMS_P2;Temp;Humidity;BMP_temperature;BMP_pressure;BME280_temperature;BME280_humidity;BME280_pressure;Samples;Min_cycle;Max_cycle;Signal;HPM_P1;HPM_P2
2021/12/13 19:13:23;;;;;;;41.75;28.35;;;3.20;99.90;;;;;;5071504;28;20887;-69
2021/12/13 19:15:54;;;;;;;43.85;28.60;;;3.20;99.90;;;;;;5071414;28;20052;-67
2021/12/13 19:18:25;;;;;;;43.88;28.50;;;3.20;99.90;;;;;;5071067;28;20397;-65
2021/12/13 19:21:07;;;;;;;42.10;27.33;;;3.20;99.90;;;;;;5071416;28;20025;-67
2021/12/13 19:23:36;;;;;;;44.20;28.27;;;3.20;99.90;;;;;;5069636;28;20092;-69
2021/12/13 19:26:13;;;;;;;50.17;28.98;;;3.20;99.90;;;;;;5070910;28;20025;-66
2021/12/13 19:28:46;;;;;;;45.25;27.42;;;3.20;99.90;;;;;;5070913;28;20035;-66
2021/12/13 19:31:16;;;;;;;43.78;27.55;;;3.20;99.90;;;;;;5070883;28;20427;-67
2021/12/13 19:33:47;;;;;;;41.15;26.55;;;3.20;99.90;;;;;;5070666;28;20031;-65
2021/12/13 19:36:23;;;;;;;44.63;27.90;;;3.20;99.90;;;;;;5070597;28;20025;-68
2021/12/13 19:39:10;;;;;;;45.67;27.67;;;3.30;99.90;;;;;;5070667;28;20466;-66
2021/12/13 19:41:48;;;;;;;42.53;27.17;;;3.20;99.90;;;;;;5070691;28;20112;-69
2021/12/13 19:44:28;;;;;;;43.80;26.33;;;3.30;99.90;;;;;;5070609;28;20374;-67
2021/12/13 19:47:05;;;;;;;44.17;29.50;;;3.20;99.90;;;;;;5070874;28;20374;-65
2021/12/13 19:50:04;;;;;;;45.17;31.98;;;3.20;99.90;;;;;;5070686;28;20029;-65
2021/12/13 19:52:34;;;;;;;46.05;30.58;;;3.20;99.90;;;;;;5070390;28;20029;-68
2021/12/13 19:55:21;;;;;;;39.45;27.05;;;3.20;99.90;;;;;;5070348;28;20504;-67
2021/12/13 19:57:57;;;;;;;40.97;29.60;;;3.20;99.90;;;;;;5070460;28;20512;-68
2021/12/13 20:00:40;;;;;;;42.42;30.45;;;3.20;99.90;;;;;;5070618;28;20033;-68
2021/12/13 20:03:10;;;;;;;40.88;31.58;;;3.20;99.90;;;;;;5070778;28;20533;-68
2021/12/13 20:05:57;;;;;;;43.13;31.73;;;3.10;99.90;;;;;;5070262;28;20036;-67
2021/12/13 20:08:37;;;;;;;45.67;32.85;;;3.10;99.90;;;;;;5070232;28;20032;-71
2021/12/13 20:11:14;;;;;;;35.67;27.20;;;3.10;99.90;;;;;;5069533;28;20108;-66
2021/12/13 20:13:47;;;;;;;39.92;28.50;;;3.10;99.90;;;;;;5069785;28;20021;-69
2021/12/13 20:16:20;;;;;;;42.30;30.73;;;3.10;99.90;;;;;;5070105;28;20024;-68
2021/12/13 20:18:52;;;;;;;45.20;32.42;;;3.00;99.90;;;;;;5068452;28;20029;-71
2021/12/13 20:21:34;;;;;;;52.92;36.85;;;3.10;99.90;;;;;;5070111;28;20120;-68
2021/12/13 20:24:15;;;;;;;48.08;37.78;;;3.10;99.90;;;;;;5059726;28;20025;-70
2021/12/13 20:26:53;;;;;;;44.25;33.58;;;3.10;99.90;;;;;;5056545;28;20399;-67
2021/12/13 20:29:34;;;;;;;48.10;35.92;;;3.10;99.90;;;;;;5056580;28;20029;-67
2021/12/13 20:32:14;;;;;;;50.72;34.47;;;3.10;99.90;;;;;;5056331;28;20425;-66
2021/12/13 20:34:52;;;;;;;45.65;32.05;;;3.10;99.90;;;;;;5056406;28;20116;-66
2021/12/13 20:37:35;;;;;;;47.95;33.63;;;3.10;99.90;;;;;;5056253;28;20059;-70
2021/12/13 20:40:07;;;;;;;48.90;33.97;;;3.00;99.90;;;;;;5056331;28;20523;-64
2021/12/13 20:42:39;;;;;;;54.63;35.55;;;3.10;99.90;;;;;;5056199;28;20033;-67
2021/12/13 20:45:18;;;;;;;79.15;46.15;;;3.00;99.90;;;;;;5056227;28;20025;-63
2021/12/13 20:47:48;;;;;;;94.10;51.38;;;3.10;99.90;;;;;;5056416;28;20458;-67
2021/12/13 20:50:44;;;;;;;91.35;52.60;;;3.10;99.90;;;;;;5056055;28;20445;-66
2021/12/13 20:53:15;;;;;;;54.38;35.92;;;3.10;99.90;;;;;;5056008;28;20059;-70
2021/12/13 20:55:47;;;;;;;62.65;38.70;;;3.00;99.90;;;;;;5056390;28;20074;-67
2021/12/13 20:58:42;;;;;;;55.22;35.70;;;3.00;99.90;;;;;;5056158;28;20108;-68
2021/12/13 21:01:24;;;;;;;45.60;31.25;;;3.10;99.90;;;;;;5055728;28;20061;-68
2021/12/13 21:03:55;;;;;;;37.03;26.02;;;3.10;99.90;;;;;;5055621;28;20075;-67
2021/12/13 21:06:27;;;;;;;36.42;27.13;;;3.00;99.90;;;;;;5055848;28;20374;-68
2021/12/13 21:09:03;;;;;;;32.67;23.10;;;3.10;99.90;;;;;;5054459;28;20032;-68
2021/12/13 21:11:34;;;;;;;;;;;3.10;99.90;;;;;;5055802;28;20061;-68
2021/12/13 21:14:05;;;;;;;45.40;35.78;;;3.10;99.90;;;;;;5055547;28;19915;-65
2021/12/13 21:16:39;;;;;;;46.72;33.03;;;3.00;99.90;;;;;;5055855;28;20025;-67
2021/12/13 21:19:16;;;;;;;37.25;27.75;;;3.10;99.90;;;;;;5055746;28;20048;-68
2021/12/13 21:21:46;;;;;;;40.35;26.50;;;3.00;99.90;;;;;;5055348;28;20509;-70
2021/12/13 21:24:32;;;;;;;37.60;24.15;;;3.00;99.90;;;;;;5055637;28;20024;-71
2021/12/13 21:27:23;;;;;;;35.22;24.58;;;3.10;99.90;;;;;;5055646;28;20417;-69
2021/12/13 21:29:55;;;;;;;43.72;26.98;;;3.10;99.90;;;;;;5054757;28;20036;-68
2021/12/13 21:32:33;;;;;;;44.58;27.85;;;3.10;99.90;;;;;;5055180;28;20087;-65
2021/12/13 21:35:30;;;;;;;44.30;28.00;;;3.10;99.90;;;;;;5054168;28;20033;-68
2021/12/13 21:40:51;;;;;;;30.98;20.55;;;3.10;99.90;;;;;;5055359;28;20302;-67
2021/12/13 21:43:18;;;;;;;31.10;22.30;;;3.00;99.90;;;;;;5055183;28;20025;-67
2021/12/13 21:45:54;;;;;;;25.25;19.40;;;3.10;99.90;;;;;;5055251;28;20474;-67
2021/12/13 21:48:26;;;;;;;24.17;17.90;;;3.00;99.90;;;;;;5054926;28;20025;-66
2021/12/13 21:50:56;;;;;;;23.52;17.85;;;3.10;99.90;;;;;;5055077;28;20025;-67
2021/12/13 21:53:34;;;;;;;25.20;19.48;;;3.10;99.90;;;;;;5054931;28;20033;-65
2021/12/13 21:56:18;;;;;;;26.20;20.50;;;3.10;99.90;;;;;;5053651;28;20036;-65
2021/12/13 21:58:49;;;;;;;36.67;27.38;;;3.10;99.90;;;;;;5053558;28;20064;-66
2021/12/13 22:01:28;;;;;;;31.98;23.48;;;3.00;99.90;;;;;;5054827;28;20033;-67
2021/12/13 22:04:03;;;;;;;31.98;22.50;;;3.00;99.90;;;;;;5053680;28;20458;-67
2021/12/13 22:06:32;;;;;;;28.00;19.98;;;3.00;99.90;;;;;;5055057;28;20383;-68
2021/12/13 22:09:03;;;;;;;23.80;18.20;;;3.00;99.90;;;;;;5053211;28;20029;-68
2021/12/13 22:11:44;;;;;;;28.30;23.30;;;3.00;99.90;;;;;;5054287;28;20056;-67
2021/12/13 22:14:18;;;;;;;32.75;25.00;;;3.00;99.90;;;;;;5054374;28;20143;-68
2021/12/13 22:16:51;;;;;;;27.23;18.60;;;3.10;99.90;;;;;;5053382;28;20104;-67
2021/12/13 22:19:32;;;;;;;24.33;15.48;;;3.10;99.90;;;;;;5054494;28;20025;-68
2021/12/13 22:22:02;;;;;;;24.92;16.58;;;3.00;99.90;;;;;;5054442;28;20368;-66
2021/12/13 22:24:35;;;;;;;21.23;16.17;;;3.10;99.90;;;;;;5054257;28;20422;-67
2021/12/13 22:27:09;;;;;;;24.75;18.23;;;3.10;99.90;;;;;;5054406;28;20039;-68
2021/12/13 22:29:36;;;;;;;25.10;20.17;;;3.10;99.90;;;;;;5054307;28;20099;-67
2021/12/13 22:32:08;;;;;;;28.55;22.00;;;3.10;99.90;;;;;;5054050;28;20117;-67
2021/12/13 22:34:40;;;;;;;25.13;18.45;;;3.00;99.90;;;;;;5053076;28;20446;-65
2021/12/13 22:37:17;;;;;;;25.42;20.50;;;3.00;99.90;;;;;;5054050;28;20092;-68
2021/12/13 22:39:43;;;;;;;28.58;20.33;;;3.00;99.90;;;;;;5053469;28;20160;-67
2021/12/13 22:42:11;;;;;;;27.70;19.90;;;3.00;99.90;;;;;;5054138;28;20478;-66
2021/12/13 22:44:41;;;;;;;26.00;19.38;;;3.00;99.90;;;;;;5054395;28;20028;-66
2021/12/13 22:47:23;;;;;;;27.98;21.27;;;3.00;99.90;;;;;;5053769;28;20383;-67
2021/12/13 22:49:54;;;;;;;26.67;20.23;;;3.00;99.90;;;;;;5053386;28;20482;-65
2021/12/13 22:52:32;;;;;;;29.25;20.05;;;3.00;99.90;;;;;;5053984;28;20124;-66
2021/12/13 22:55:00;;;;;;;31.13;21.25;;;3.00;99.90;;;;;;5054084;28;20438;-66
2021/12/13 22:57:31;;;;;;;29.90;22.15;;;3.00;99.90;;;;;;5053877;28;20025;-68
2021/12/13 22:59:57;;;;;;;28.65;21.45;;;3.00;99.90;;;;;;5053781;28;20379;-66
2021/12/13 23:02:30;;;;;;;31.67;22.05;;;3.00;99.90;;;;;;5053772;28;20124;-65
2021/12/13 23:05:13;;;;;;;28.70;20.13;;;3.00;99.90;;;;;;5054084;28;20032;-67
2021/12/13 23:07:40;;;;;;;26.42;19.63;;;3.00;99.90;;;;;;5052671;28;20425;-71
2021/12/13 23:10:28;;;;;;;31.60;22.70;;;3.00;99.90;;;;;;5053672;28;20021;-67
2021/12/13 23:15:59;;;;;;;28.85;20.83;;;3.00;99.90;;;;;;5053563;28;20063;-65
2021/12/13 23:18:27;;;;;;;40.08;27.25;;;3.00;99.90;;;;;;5053545;28;20025;-65
2021/12/13 23:20:53;;;;;;;54.20;31.88;;;3.00;99.90;;;;;;5053824;28;20087;-67
2021/12/13 23:23:20;;;;;;;57.40;34.38;;;3.00;99.90;;;;;;5053545;28;20028;-66
2021/12/13 23:25:48;;;;;;;44.38;28.25;;;3.00;99.90;;;;;;5053364;28;20532;-66
2021/12/13 23:28:24;;;;;;;50.00;31.60;;;3.00;99.90;;;;;;5052226;28;20074;-66
2021/12/13 23:30:54;;;;;;;40.13;25.08;;;3.00;99.90;;;;;;5053506;28;20072;-66
2021/12/13 23:33:23;;;;;;;32.78;23.25;;;3.00;99.90;;;;;;5053402;28;20162;-66
2021/12/13 23:49:31;;;;;;;29.15;20.20;;;2.90;99.90;;;;;;5053397;28;20029;-67
2021/12/13 23:51:58;;;;;;;29.65;21.05;;;2.90;99.90;;;;;;5053179;28;20043;-67
2021/12/13 23:54:25;;;;;;;31.38;21.30;;;2.90;99.90;;;;;;5052068;28;20033;-67
2021/12/13 23:56:51;;;;;;;31.45;22.45;;;2.90;99.90;;;;;;5053041;28;20035;-66
2021/12/13 23:59:17;;;;;;;32.95;23.33;;;2.90;99.90;;;;;;5056054;28;20028;-67
